Time;durP1;ratioP1;P1;durP2;ratioP2;P2;SDS_P1;SDS_P2;PMS_P1;PMS_P2;Temp;Humidity;BMP_temperature;BMP_pressure;BME280_temperature;BME280_humidity;BME280_pressure;Samples;Min_cycle;Max_cycle;Signal;HPM_P1;HPM_P2
2022/03/03 00:02:18;;;;;;;;;59.75;49.00;;;;;;;;5007160;28;11620;-83
2022/03/03 00:04:45;;;;;;;;;62.50;51.75;;;;;;;;5003872;28;11715;-83
2022/03/03 00:07:14;;;;;;;;;63.50;52.25;;;;;;;;4986101;28;11685;-83
2022/03/03 00:09:41;;;;;;;;;66.75;52.50;;;;;;;;5016928;28;12434;-83
2022/03/03 00:12:09;;;;;;;;;73.00;57.00;;;;;;;;5007849;28;11686;-83
2022/03/03 00:14:37;;;;;;;;;76.75;58.75;;;;;;;;5003179;28;11848;-83
2022/03/03 00:17:04;;;;;;;;;67.25;55.25;;;;;;;;5003795;28;11683;-82
2022/03/03 00:19:33;;;;;;;;;81.50;66.50;;;;;;;;5002100;28;11644;-82
2022/03/03 00:22:01;;;;;;;;;82.25;63.75;;;;;;;;5007729;28;11759;-83
2022/03/03 00:24:28;;;;;;;;;67.50;55.50;;;;;;;;5002384;28;11706;-84
2022/03/03 00:26:55;;;;;;;;;67.50;56.25;;;;;;;;5004519;28;11778;-84
2022/03/03 00:29:22;;;;;;;;;67.50;54.25;;;;;;;;5005255;28;11661;-84
2022/03/03 00:31:50;;;;;;;;;69.00;56.50;;;;;;;;5013299;28;11721;-84
2022/03/03 00:34:17;;;;;;;;;61.50;53.00;;;;;;;;5021323;28;11691;-83
2022/03/03 00:36:46;;;;;;;;;65.50;55.00;;;;;;;;5014715;28;11669;-81
2022/03/03 00:39:14;;;;;;;;;68.50;52.50;;;;;;;;5005484;28;11811;-82
2022/03/03 00:41:41;;;;;;;;;64.50;53.00;;;;;;;;4999657;28;13025;-82
2022/03/03 00:44:09;;;;;;;;;63.25;52.00;;;;;;;;5002866;28;11136;-82
2022/03/03 00:46:37;;;;;;;;;66.00;53.00;;;;;;;;4993430;28;11666;-82
2022/03/03 00:49:05;;;;;;;;;59.75;48.25;;;;;;;;5006002;28;12079;-82
2022/03/03 00:51:32;;;;;;;;;65.00;51.75;;;;;;;;5016764;28;11724;-82
2022/03/03 00:54:01;;;;;;;;;57.50;47.75;;;;;;;;5003080;28;11645;-82
2022/03/03 00:56:28;;;;;;;;;61.75;51.25;;;;;;;;5002773;28;11802;-82
2022/03/03 00:58:56;;;;;;;;;55.25;45.50;;;;;;;;5007135;28;11646;-82
2022/03/03 01:01:23;;;;;;;;;63.00;52.25;;;;;;;;4984839;28;11615;-83
2022/03/03 01:03:51;;;;;;;;;64.75;49.75;;;;;;;;5014440;28;11676;-82
2022/03/03 01:06:18;;;;;;;;;58.25;48.50;;;;;;;;5010771;28;12413;-83
2022/03/03 01:08:46;;;;;;;;;63.75;52.25;;;;;;;;5006806;28;11760;-82
2022/03/03 01:11:15;;;;;;;;;66.50;51.25;;;;;;;;4998254;28;11726;-82
2022/03/03 01:13:42;;;;;;;;;60.25;48.00;;;;;;;;5013030;28;11775;-82
2022/03/03 01:16:09;;;;;;;;;64.75;54.50;;;;;;;;5001886;28;11655;-82
2022/03/03 01:18:36;;;;;;;;;59.75;48.50;;;;;;;;5005589;28;11666;-83
2022/03/03 01:21:04;;;;;;;;;41.00;40.00;;;;;;;;5002020;28;12240;-84
2022/03/03 01:23:31;;;;;;;;;60.75;48.00;;;;;;;;5011485;28;11640;-83
2022/03/03 01:25:59;;;;;;;;;65.50;55.50;;;;;;;;4984023;28;11697;-83
2022/03/03 01:28:28;;;;;;;;;64.25;52.50;;;;;;;;5006603;28;12185;-83
2022/03/03 01:30:55;;;;;;;;;68.50;53.75;;;;;;;;5002909;28;11609;-82
2022/03/03 01:33:22;;;;;;;;;66.00;55.25;;;;;;;;5000216;28;11722;-83
2022/03/03 01:35:49;;;;;;;;;68.75;51.75;;;;;;;;4991403;28;12461;-83
2022/03/03 01:38:17;;;;;;;;;65.00;53.25;;;;;;;;5017787;28;11680;-82
2022/03/03 01:40:44;;;;;;;;;66.00;54.00;;;;;;;;5003466;28;11773;-82
2022/03/03 01:43:12;;;;;;;;;53.25;43.75;;;;;;;;5015074;28;11838;-82
2022/03/03 01:45:41;;;;;;;;;58.00;48.00;;;;;;;;4994600;28;12513;-81
2022/03/03 01:48:08;;;;;;;;;30.00;22.75;;;;;;;;4995491;28;11651;-82
2022/03/03 01:50:35;;;;;;;;;65.00;52.25;;;;;;;;5011074;28;12512;-82
2022/03/03 01:53:03;;;;;;;;;60.75;52.25;;;;;;;;5014228;28;11758;-82
2022/03/03 01:55:31;;;;;;;;;69.00;52.25;;;;;;;;4994190;28;11678;-82
2022/03/03 01:57:59;;;;;;;;;67.75;57.00;;;;;;;;4985383;28;11712;-82
2022/03/03 02:00:27;;;;;;;;;69.00;55.00;;;;;;;;5006730;28;11588;-81
2022/03/03 02:02:56;;;;;;;;;56.75;47.50;;;;;;;;5009492;28;11765;-81
2022/03/03 02:05:23;;;;;;;;;65.25;51.25;;;;;;;;5005345;28;11675;-82
2022/03/03 02:07:50;;;;;;;;;54.75;46.25;;;;;;;;5011489;28;11765;-82
2022/03/03 02:10:18;;;;;;;;;65.25;52.25;;;;;;;;5003333;28;11756;-83
2022/03/03 02:12:46;;;;;;;;;69.50;55.00;;;;;;;;4978081;28;11647;-82
2022/03/03 02:15:17;;;;;;;;;61.25;50.25;;;;;;;;5001760;28;12169;-82
2022/03/03 02:17:45;;;;;;;;;70.00;56.00;;;;;;;;5004388;28;11683;-83
2022/03/03 02:20:21;;;;;;;;;62.33;52.00;;;;;;;;5005702;28;11769;-82
2022/03/03 02:22:49;;;;;;;;;70.67;55.00;;;;;;;;5007519;28;11619;-83
2022/03/03 02:25:17;;;;;;;;;61.50;48.50;;;;;;;;4993641;28;11669;-83
2022/03/03 02:27:45;;;;;;;;;61.00;48.50;;;;;;;;5002719;28;11644;-83
2022/03/03 02:30:13;;;;;;;;;64.50;52.50;;;;;;;;4958675;28;11652;-83
2022/03/03 02:32:42;;;;;;;;;64.00;49.33;;;;;;;;5003051;28;11693;-83
2022/03/03 02:35:10;;;;;;;;;64.67;50.33;;;;;;;;5011546;28;11636;-82
2022/03/03 02:37:40;;;;;;;;;57.33;48.00;;;;;;;;5004880;28;11830;-82
2022/03/03 02:40:11;;;;;;;;;60.75;48.00;;;;;;;;5002062;28;11734;-82
2022/03/03 02:42:39;;;;;;;;;56.33;48.00;;;;;;;;5005187;28;11685;-83
2022/03/03 02:45:07;;;;;;;;;60.33;48.67;;;;;;;;5009404;28;11640;-81
2022/03/03 02:47:41;;;;;;;;;61.33;50.67;;;;;;;;5000094;28;11689;-82
2022/03/03 02:50:09;;;;;;;;;60.33;48.67;;;;;;;;4999558;28;11729;-82
2022/03/03 02:52:38;;;;;;;;;67.67;53.00;;;;;;;;5000688;28;12442;-82
2022/03/03 02:55:07;;;;;;;;;75.00;55.33;;;;;;;;5004565;28;11679;-82
2022/03/03 03:00:20;;;;;;;;;63.33;52.00;;;;;;;;5003021;28;11679;-83
2022/03/03 03:02:47;;;;;;;;;57.67;46.33;;;;;;;;5004794;28;11650;-83
2022/03/03 03:05:15;;;;;;;;;55.67;46.67;;;;;;;;4992320;28;11646;-82
2022/03/03 03:07:43;;;;;;;;;63.00;50.33;;;;;;;;5015001;28;11700;-82
2022/03/03 03:10:11;;;;;;;;;67.67;49.00;;;;;;;;5015165;28;11669;-81
2022/03/03 03:12:38;;;;;;;;;64.00;51.67;;;;;;;;5006969;28;11684;-83
2022/03/03 03:15:07;;;;;;;;;72.00;56.00;;;;;;;;4996258;28;11665;-82
2022/03/03 03:17:34;;;;;;;;;67.00;51.00;;;;;;;;4986434;28;11752;-82
2022/03/03 03:20:01;;;;;;;;;65.00;54.00;;;;;;;;5002699;28;8880;-83
2022/03/03 03:22:29;;;;;;;;;71.00;53.33;;;;;;;;4999082;28;11696;-83
2022/03/03 03:24:58;;;;;;;;;56.75;47.75;;;;;;;;5015222;28;11697;-83
2022/03/03 03:27:25;;;;;;;;;62.75;52.00;;;;;;;;4993237;28;11677;-83
2022/03/03 03:29:53;;;;;;;;;54.00;46.00;;;;;;;;5012810;28;12493;-83
2022/03/03 03:32:21;;;;;;;;;55.67;47.67;;;;;;;;5003577;28;11625;-82
2022/03/03 03:34:48;;;;;;;;;69.00;53.33;;;;;;;;5007878;28;11659;-83
2022/03/03 03:37:16;;;;;;;;;54.25;47.25;;;;;;;;5017451;28;11735;-83
2022/03/03 03:39:43;;;;;;;;;62.75;51.50;;;;;;;;4986522;28;11756;-83
2022/03/03 03:42:12;;;;;;;;;59.50;50.25;;;;;;;;5004714;28;12533;-83
2022/03/03 03:44:40;;;;;;;;;61.00;51.00;;;;;;;;5006868;28;11685;-83
2022/03/03 03:47:09;;;;;;;;;62.33;48.67;;;;;;;;5006553;28;11792;-83
2022/03/03 03:49:36;;;;;;;;;64.67;50.67;;;;;;;;5008957;28;11784;-83
2022/03/03 03:52:04;;;;;;;;;61.00;52.00;;;;;;;;5000440;28;11694;-84
2022/03/03 03:54:31;;;;;;;;;64.33;52.00;;;;;;;;5012006;28;11657;-83
2022/03/03 03:56:59;;;;;;;;;66.33;55.33;;;;;;;;5006207;28;8879;-82
2022/03/03 03:59:28;;;;;;;;;69.67;53.67;;;;;;;;5004887;28;11670;-82
2022/03/03 04:01:55;;;;;;;;;61.67;51.33;;;;;;;;5004347;28;8865;-83
2022/03/03 04:04:23;;;;;;;;;62.33;52.33;;;;;;;;4986397;28;11668;-84
2022/03/03 04:06:50;;;;;;;;;72.33;55.00;;;;;;;;5015473;28;11756;-83
2022/03/03 04:09:17;;;;;;;;;64.33;49.00;;;;;;;;5018131;28;9626;-83
2022/03/03 04:11:44;;;;;;;;;60.00;49.00;;;;;;;;5011081;28;11638;-83
2022/03/03 04:14:12;;;;;;;;;67.33;53.67;;;;;;;;4995348;28;11668;-83
2022/03/03 04:16:41;;;;;;;;;72.00;57.00;;;;;;;;4987353;28;8986;-83
2022/03/03 04:19:08;;;;;;;;;62.67;53.00;;;;;;;;4983736;28;8870;-82
2022/03/03 04:21:36;;;;;;;;;66.67;54.67;;;;;;;;4984689;28;8905;-83
2022/03/03 04:24:04;;;;;;;;;70.33;56.33;;;;;;;;4977225;28;8960;-84
2022/03/03 04:26:33;;;;;;;;;63.00;50.33;;;;;;;;4986181;28;8874;-82
2022/03/03 04:29:00;;;;;;;;;56.33;47.33;;;;;;;;4967461;28;8853;-83
2022/03/03 04:31:28;;;;;;;;;71.00;54.33;;;;;;;;4984255;28;11577;-84
2022/03/03 04:33:57;;;;;;;;;52.33;44.00;;;;;;;;4967933;28;9663;-84
2022/03/03 04:36:24;;;;;;;;;60.67;48.67;;;;;;;;4989223;28;11594;-84
2022/03/03 04:38:52;;;;;;;;;61.00;49.00;;;;;;;;4984887;28;11687;-83
2022/03/03 04:41:20;;;;;;;;;61.33;51.33;;;;;;;;4987332;28;11674;-84
2022/03/03 04:43:47;;;;;;;;;56.33;47.00;;;;;;;;4981148;28;11709;-83
2022/03/03 04:46:15;;;;;;;;;57.67;50.00;;;;;;;;4984233;28;9236;-83
2022/03/03 04:48:42;;;;;;;;;66.67;52.33;;;;;;;;4996958;28;11591;-82
2022/03/03 04:51:11;;;;;;;;;57.33;46.67;;;;;;;;4989138;28;9023;-83
2022/03/03 04:53:38;;;;;;;;;66.00;51.67;;;;;;;;4988614;28;11565;-83
2022/03/03 04:56:06;;;;;;;;;64.00;48.33;;;;;;;;4984714;28;11661;-83
2022/03/03 04:58:33;;;;;;;;;69.33;55.67;;;;;;;;4988487;28;11713;-82
2022/03/03 05:01:01;;;;;;;;;62.33;50.67;;;;;;;;4986941;28;11652;-81
2022/03/03 05:03:28;;;;;;;;;66.67;52.33;;;;;;;;4991082;28;11590;-84
2022/03/03 05:05:55;;;;;;;;;64.25;54.25;;;;;;;;4982700;28;11641;-81
2022/03/03 05:08:24;;;;;;;;;71.33;54.67;;;;;;;;4984129;28;11606;-84
2022/03/03 05:10:51;;;;;;;;;70.33;56.67;;;;;;;;4990747;28;11699;-82
2022/03/03 05:13:18;;;;;;;;;64.00;53.00;;;;;;;;4991756;28;11685;-80
2022/03/03 05:15:46;;;;;;;;;67.33;56.33;;;;;;;;5003447;28;11678;-82
2022/03/03 05:18:13;;;;;;;;;70.33;55.00;;;;;;;;5005366;28;11650;-82
2022/03/03 05:20:40;;;;;;;;;63.00;51.25;;;;;;;;5005979;28;11679;-81
2022/03/03 05:23:09;;;;;;;;;69.00;57.00;;;;;;;;5020408;28;11665;-82
2022/03/03 05:25:37;;;;;;;;;65.00;53.67;;;;;;;;4991939;28;11652;-83
2022/03/03 05:28:05;;;;;;;;;70.33;56.67;;;;;;;;5004503;28;11707;-80
2022/03/03 05:30:33;;;;;;;;;58.25;47.00;;;;;;;;5007093;28;11599;-80
2022/03/03 05:33:00;;;;;;;;;72.00;56.25;;;;;;;;5003618;28;11656;-81
2022/03/03 05:35:27;;;;;;;;;60.25;47.75;;;;;;;;4997431;28;12069;-80
2022/03/03 05:37:55;;;;;;;;;59.00;51.00;;;;;;;;5003609;28;12247;-80
2022/03/03 05:40:22;;;;;;;;;61.50;49.50;;;;;;;;5010273;28;11695;-80
2022/03/03 05:42:51;;;;;;;;;79.33;59.00;;;;;;;;5014752;28;11751;-80
2022/03/03 05:45:18;;;;;;;;;67.00;55.50;;;;;;;;5002964;28;11672;-81
2022/03/03 05:47:46;;;;;;;;;69.67;57.00;;;;;;;;4983193;28;11690;-79
2022/03/03 05:50:15;;;;;;;;;63.67;52.00;;;;;;;;4998716;28;9006;-79
2022/03/03 05:52:42;;;;;;;;;69.33;53.00;;;;;;;;4995952;28;11671;-79
2022/03/03 05:55:10;;;;;;;;;73.33;53.00;;;;;;;;4997927;28;11703;-81
2022/03/03 05:57:42;;;;;;;;;77.67;59.00;;;;;;;;4965628;28;11680;-81
2022/03/03 06:00:13;;;;;;;;;67.00;55.33;;;;;;;;4997543;28;8961;-79
2022/03/03 06:02:49;;;;;;;;;68.33;54.33;;;;;;;;4996639;28;11654;-81
2022/03/03 06:05:19;;;;;;;;;69.33;55.67;;;;;;;;4997309;28;11676;-81
2022/03/03 06:07:51;;;;;;;;;66.67;55.67;;;;;;;;4996248;28;11693;-80
2022/03/03 06:10:23;;;;;;;;;63.25;50.25;;;;;;;;4997212;28;11737;-80
2022/03/03 06:12:52;;;;;;;;;55.33;48.33;;;;;;;;4993697;28;11671;-81
2022/03/03 06:15:23;;;;;;;;;60.75;51.50;;;;;;;;4977336;28;11616;-78
2022/03/03 06:17:51;;;;;;;;;68.67;56.33;;;;;;;;4977880;28;11575;-83
2022/03/03 06:20:19;;;;;;;;;65.33;47.67;;;;;;;;4979458;28;11609;-84
2022/03/03 06:22:46;;;;;;;;;71.67;57.00;;;;;;;;4985070;28;8885;-82
2022/03/03 06:25:14;;;;;;;;;65.33;52.67;;;;;;;;4982543;28;9631;-78
2022/03/03 06:27:41;;;;;;;;;64.33;53.33;;;;;;;;4986311;28;11623;-84
2022/03/03 06:30:10;;;;;;;;;72.33;54.67;;;;;;;;4979978;28;11602;-77
2022/03/03 06:32:38;;;;;;;;;71.67;58.67;;;;;;;;4980798;28;11639;-77
2022/03/03 06:35:06;;;;;;;;;70.67;58.67;;;;;;;;4984534;28;11654;-77
2022/03/03 06:37:34;;;;;;;;;70.33;54.00;;;;;;;;4978712;28;8849;-77
2022/03/03 06:40:01;;;;;;;;;77.00;53.67;;;;;;;;4981654;28;8892;-77
2022/03/03 06:42:29;;;;;;;;;63.00;53.00;;;;;;;;4965298;28;8936;-77
2022/03/03 06:44:57;;;;;;;;;71.00;59.67;;;;;;;;4982161;28;11608;-77
2022/03/03 06:47:24;;;;;;;;;69.33;55.00;;;;;;;;4982165;28;11607;-77
2022/03/03 06:49:53;;;;;;;;;72.00;57.00;;;;;;;;4959656;28;12501;-77
2022/03/03 06:52:26;;;;;;;;;70.00;57.67;;;;;;;;4982230;28;11613;-77
2022/03/03 06:54:54;;;;;;;;;63.33;52.67;;;;;;;;4981920;28;11636;-76
2022/03/03 06:57:23;;;;;;;;;62.00;53.00;;;;;;;;4966112;28;11606;-78
2022/03/03 06:59:51;;;;;;;;;66.33;51.67;;;;;;;;4977684;28;11695;-77
2022/03/03 07:02:20;;;;;;;;;65.25;55.00;;;;;;;;4979134;28;12502;-77
2022/03/03 07:04:53;;;;;;;;;72.50;56.50;;;;;;;;4964598;28;12467;-80
2022/03/03 07:07:21;;;;;;;;;75.75;56.00;;;;;;;;4961444;28;11650;-78
2022/03/03 07:09:49;;;;;;;;;63.00;51.75;;;;;;;;4980466;28;11601;-77
2022/03/03 07:12:17;;;;;;;;;76.75;60.50;;;;;;;;4982318;28;11593;-79
2022/03/03 07:14:44;;;;;;;;;75.00;59.50;;;;;;;;4979209;28;12321;-76
2022/03/03 07:17:17;;;;;;;;;78.67;60.33;;;;;;;;4977680;28;11687;-76
2022/03/03 07:19:53;;;;;;;;;82.75;61.50;;;;;;;;4981451;28;11642;-76
2022/03/03 07:22:22;;;;;;;;;80.25;63.50;;;;;;;;4981247;28;11622;-76
2022/03/03 07:24:58;;;;;;;;;84.25;63.00;;;;;;;;4963170;28;11595;-76
2022/03/03 07:27:26;;;;;;;;;80.00;64.00;;;;;;;;4981494;28;11619;-75
2022/03/03 07:29:57;;;;;;;;;72.25;59.75;;;;;;;;4979428;28;11629;-76
2022/03/03 07:32:34;;;;;;;;;78.00;62.50;;;;;;;;4980275;28;12387;-75
2022/03/03 07:35:05;;;;;;;;;90.33;68.00;;;;;;;;4977824;28;11607;-77
2022/03/03 07:37:37;;;;;;;;;86.33;67.00;;;;;;;;4981296;28;11630;-77
2022/03/03 07:40:07;;;;;;;;;92.67;72.33;;;;;;;;4963004;28;11994;-79
2022/03/03 07:42:35;;;;;;;;;91.00;70.33;;;;;;;;4980863;28;9133;-78
2022/03/03 07:45:04;;;;;;;;;83.25;63.00;;;;;;;;4983182;28;12359;-78
2022/03/03 07:47:32;;;;;;;;;78.25;62.50;;;;;;;;4979222;28;12626;-76
2022/03/03 07:49:59;;;;;;;;;91.00;70.33;;;;;;;;4982504;28;11678;-77
2022/03/03 07:52:29;;;;;;;;;91.50;68.75;;;;;;;;4945527;28;11760;-75
2022/03/03 07:54:56;;;;;;;;;85.00;68.33;;;;;;;;4980725;28;11635;-76
2022/03/03 07:57:25;;;;;;;;;96.00;81.00;;;;;;;;4980214;28;11615;-76
2022/03/03 08:00:02;;;;;;;;;93.33;80.00;;;;;;;;4981247;28;8901;-76
2022/03/03 08:02:32;;;;;;;;;83.75;67.00;;;;;;;;4980715;28;8919;-75
2022/03/03 08:05:02;;;;;;;;;80.25;65.00;;;;;;;;4974676;28;11768;-75
2022/03/03 08:07:36;;;;;;;;;75.00;62.50;;;;;;;;4981215;28;11626;-75
2022/03/03 08:10:04;;;;;;;;;78.75;62.75;;;;;;;;4980344;28;11623;-76
2022/03/03 08:12:32;;;;;;;;;80.25;65.00;;;;;;;;4962827;28;11671;-76
2022/03/03 08:15:00;;;;;;;;;79.25;62.50;;;;;;;;5007897;28;11796;-75
2022/03/03 08:17:27;;;;;;;;;82.50;65.00;;;;;;;;5008458;28;11644;-75
2022/03/03 08:19:56;;;;;;;;;86.00;66.75;;;;;;;;4999591;28;12458;-75
2022/03/03 08:22:25;;;;;;;;;74.50;59.25;;;;;;;;5003960;28;11675;-75
2022/03/03 08:24:55;;;;;;;;;81.00;61.25;;;;;;;;5003291;28;12682;-78
2022/03/03 08:27:24;;;;;;;;;75.50;62.00;;;;;;;;5023447;28;11829;-77
2022/03/03 08:29:53;;;;;;;;;79.50;61.50;;;;;;;;5006884;28;11734;-77
2022/03/03 08:32:21;;;;;;;;;87.50;65.00;;;;;;;;4997875;28;11612;-77
2022/03/03 08:34:58;;;;;;;;;81.25;64.50;;;;;;;;5001002;28;11759;-75
2022/03/03 08:37:29;;;;;;;;;80.00;62.25;;;;;;;;5007713;28;12460;-75
2022/03/03 08:40:00;;;;;;;;;67.50;55.50;;;;;;;;5003941;28;11680;-75
2022/03/03 08:42:32;;;;;;;;;68.75;56.75;;;;;;;;4989895;28;11693;-76
2022/03/03 08:45:02;;;;;;;;;77.75;60.75;;;;;;;;5009172;28;11774;-76
2022/03/03 08:47:31;;;;;;;;;77.75;61.50;;;;;;;;5008453;28;11691;-76
2022/03/03 08:50:00;;;;;;;;;83.50;63.75;;;;;;;;5024451;28;11648;-75
2022/03/03 08:52:28;;;;;;;;;88.33;66.67;;;;;;;;5021432;28;11690;-75
2022/03/03 08:54:57;;;;;;;;;76.50;60.25;;;;;;;;5006411;28;11671;-75
2022/03/03 08:57:24;;;;;;;;;72.50;56.50;;;;;;;;5022807;28;11799;-76
2022/03/03 08:59:52;;;;;;;;;76.75;60.25;;;;;;;;5024401;28;11665;-76
2022/03/03 09:02:20;;;;;;;;;72.50;58.00;;;;;;;;5004024;28;11742;-76
2022/03/03 09:04:47;;;;;;;;;70.75;55.00;;;;;;;;5024288;28;11690;-76
2022/03/03 09:07:15;;;;;;;;;75.00;60.25;;;;;;;;5023163;28;11678;-76
2022/03/03 09:09:42;;;;;;;;;70.25;55.25;;;;;;;;5014932;28;11680;-76
2022/03/03 09:12:13;;;;;;;;;64.00;54.75;;;;;;;;5010927;28;11723;-76
2022/03/03 09:14:41;;;;;;;;;74.00;58.25;;;;;;;;5022498;28;11661;-76
2022/03/03 09:17:09;;;;;;;;;68.50;55.50;;;;;;;;5021423;28;11643;-76
2022/03/03 09:19:36;;;;;;;;;69.00;54.25;;;;;;;;5012617;28;11643;-77
2022/03/03 09:22:04;;;;;;;;;67.75;53.25;;;;;;;;5012657;28;11795;-77
2022/03/03 09:24:32;;;;;;;;;62.75;49.75;;;;;;;;5021957;28;11614;-77
2022/03/03 09:27:00;;;;;;;;;69.75;57.00;;;;;;;;4990002;28;11778;-77
2022/03/03 09:29:33;;;;;;;;;63.50;51.75;;;;;;;;5003286;28;11690;-78
2022/03/03 09:32:00;;;;;;;;;64.75;52.50;;;;;;;;5002164;28;11585;-77
2022/03/03 09:34:28;;;;;;;;;67.00;52.00;;;;;;;;5018649;28;11597;-77
2022/03/03 09:36:56;;;;;;;;;67.00;53.00;;;;;;;;5022065;28;11698;-77
2022/03/03 09:39:23;;;;;;;;;65.25;53.50;;;;;;;;5023236;28;11591;-77
2022/03/03 09:41:52;;;;;;;;;64.50;51.50;;;;;;;;5014477;28;11595;-77
2022/03/03 09:44:22;;;;;;;;;71.00;53.00;;;;;;;;5009071;28;11644;-77
2022/03/03 09:46:51;;;;;;;;;67.75;55.00;;;;;;;;5003353;28;11568;-77
2022/03/03 09:49:19;;;;;;;;;65.00;53.75;;;;;;;;5018947;28;11638;-77
2022/03/03 09:51:47;;;;;;;;;67.25;52.25;;;;;;;;5022902;28;11640;-77
2022/03/03 09:54:15;;;;;;;;;64.75;52.50;;;;;;;;5021431;28;11608;-77
2022/03/03 09:56:43;;;;;;;;;66.25;54.00;;;;;;;;5023287;28;12457;-77
2022/03/03 09:59:10;;;;;;;;;58.25;48.25;;;;;;;;5022204;28;11633;-77
2022/03/03 10:01:38;;;;;;;;;55.00;45.50;;;;;;;;5017893;28;11347;-77
2022/03/03 10:04:21;;;;;;;;;57.25;45.00;;;;;;;;5022257;28;12150;-77
2022/03/03 10:06:49;;;;;;;;;60.00;49.50;;;;;;;;5021276;28;11275;-77
2022/03/03 10:09:18;;;;;;;;;61.00;48.50;;;;;;;;5022399;28;11275;-77
2022/03/03 10:12:01;;;;;;;;;63.00;50.00;;;;;;;;5021550;28;12070;-76
2022/03/03 10:14:29;;;;;;;;;58.50;47.25;;;;;;;;5021753;28;11602;-77
2022/03/03 10:16:57;;;;;;;;;51.25;41.25;;;;;;;;5000578;28;11358;-77
2022/03/03 10:19:25;;;;;;;;;60.50;51.00;;;;;;;;4991920;28;11244;-77
2022/03/03 10:21:53;;;;;;;;;61.75;51.00;;;;;;;;5020400;28;11275;-78
2022/03/03 10:24:24;;;;;;;;;58.75;47.00;;;;;;;;5001631;28;11270;-77
2022/03/03 10:26:58;;;;;;;;;66.00;51.00;;;;;;;;5002522;28;11136;-78
2022/03/03 10:29:26;;;;;;;;;59.50;50.00;;;;;;;;5015742;28;11136;-78
2022/03/03 10:31:55;;;;;;;;;62.50;51.25;;;;;;;;4994034;28;11032;-78
2022/03/03 10:34:27;;;;;;;;;57.50;47.00;;;;;;;;5000672;28;11240;-77
2022/03/03 10:36:59;;;;;;;;;56.00;43.25;;;;;;;;5003015;28;11118;-77
2022/03/03 10:39:26;;;;;;;;;64.25;50.75;;;;;;;;5021559;28;11115;-77
2022/03/03 10:41:57;;;;;;;;;55.75;44.75;;;;;;;;5020795;28;11242;-77
2022/03/03 10:44:30;;;;;;;;;62.00;50.00;;;;;;;;5012459;28;11866;-77
2022/03/03 10:47:07;;;;;;;;;60.25;48.25;;;;;;;;4983663;28;12006;-78
2022/03/03 10:49:37;;;;;;;;;53.25;46.00;;;;;;;;4971475;28;11927;-78
2022/03/03 10:52:12;;;;;;;;;53.00;43.00;;;;;;;;5005573;28;10915;-77
2022/03/03 10:54:58;;;;;;;;;57.75;46.00;;;;;;;;5020625;28;11005;-77
2022/03/03 10:57:40;;;;;;;;;58.25;48.25;;;;;;;;5008552;28;11180;-77
2022/03/03 11:00:14;;;;;;;;;58.25;48.00;;;;;;;;5020481;28;11232;-76
2022/03/03 11:02:44;;;;;;;;;61.25;48.25;;;;;;;;5021302;28;10891;-77
2022/03/03 11:05:14;;;;;;;;;56.00;46.75;;;;;;;;5021563;28;11050;-77
2022/03/03 11:07:42;;;;;;;;;57.25;46.50;;;;;;;;5020866;28;10962;-77
2022/03/03 11:10:13;;;;;;;;;54.25;45.75;;;;;;;;5005107;28;11742;-75
2022/03/03 11:12:44;;;;;;;;;59.75;47.00;;;;;;;;5021983;28;11146;-76
2022/03/03 11:15:13;;;;;;;;;58.75;48.50;;;;;;;;5021859;28;10721;-77
2022/03/03 11:17:40;;;;;;;;;54.00;44.00;;;;;;;;5011100;28;10544;-78
2022/03/03 11:20:11;;;;;;;;;54.50;44.50;;;;;;;;4998009;28;10494;-76
2022/03/03 11:22:53;;;;;;;;;55.00;44.50;;;;;;;;5002732;28;10326;-77
2022/03/03 11:25:37;;;;;;;;;46.75;40.25;;;;;;;;5001806;28;10395;-79
2022/03/03 11:28:07;;;;;;;;;57.50;46.50;;;;;;;;5004948;28;10065;-83
2022/03/03 11:30:38;;;;;;;;;54.00;43.00;;;;;;;;5003022;28;10387;-80
2022/03/03 11:33:26;;;;;;;;;48.00;39.50;;;;;;;;4990119;28;10384;-76
2022/03/03 11:35:56;;;;;;;;;54.00;42.75;;;;;;;;5013084;28;10351;-80
2022/03/03 11:38:26;;;;;;;;;52.25;42.25;;;;;;;;5002856;28;10257;-82
2022/03/03 11:40:56;;;;;;;;;58.75;45.00;;;;;;;;5004455;28;10234;-79
2022/03/03 11:43:24;;;;;;;;;42.00;34.25;;;;;;;;5000269;28;10316;-80
2022/03/03 11:45:53;;;;;;;;;41.25;38.25;;;;;;;;4981869;28;10170;-77
2022/03/03 11:48:22;;;;;;;;;43.00;38.25;;;;;;;;5003684;28;9981;-81
2022/03/03 11:50:50;;;;;;;;;46.25;38.50;;;;;;;;4999664;28;10077;-78
2022/03/03 11:53:22;;;;;;;;;39.75;35.25;;;;;;;;4984959;28;9882;-78
2022/03/03 11:56:02;;;;;;;;;39.00;34.25;;;;;;;;5002781;28;9933;-79
2022/03/03 11:58:32;;;;;;;;;43.00;37.00;;;;;;;;5004608;28;9985;-78
2022/03/03 12:01:09;;;;;;;;;40.00;35.25;;;;;;;;4981674;28;9748;-79
2022/03/03 12:04:01;;;;;;;;;41.00;37.25;;;;;;;;4980600;28;9821;-77
2022/03/03 12:06:43;;;;;;;;;33.00;31.00;;;;;;;;5007576;28;9794;-78
2022/03/03 12:09:21;;;;;;;;;44.25;38.00;;;;;;;;5003307;28;9691;-75
2022/03/03 12:11:50;;;;;;;;;42.50;37.50;;;;;;;;5004616;28;9720;-79
2022/03/03 12:14:31;;;;;;;;;46.00;35.75;;;;;;;;5005473;28;9690;-77
2022/03/03 12:17:32;;;;;;;;;40.50;34.50;;;;;;;;5000637;28;9667;-76
2022/03/03 12:20:34;;;;;;;;;40.50;36.75;;;;;;;;5017825;28;9986;-77
2022/03/03 12:23:07;;;;;;;;;42.25;35.50;;;;;;;;5010009;28;11130;-81
2022/03/03 12:25:58;;;;;;;;;40.00;37.25;;;;;;;;5001413;28;9595;-78
2022/03/03 12:28:28;;;;;;;;;41.25;36.75;;;;;;;;4998356;28;9632;-77
2022/03/03 12:30:56;;;;;;;;;49.50;37.25;;;;;;;;4996928;28;9506;-77
2022/03/03 12:33:25;;;;;;;;;39.00;36.25;;;;;;;;4987415;28;9672;-79
2022/03/03 12:35:53;;;;;;;;;43.75;36.00;;;;;;;;4998134;28;9880;-81
2022/03/03 12:38:21;;;;;;;;;24.67;22.33;;;;;;;;5008161;28;9910;-83
2022/03/03 12:40:49;;;;;;;;;31.00;31.00;;;;;;;;5002145;28;9488;-83
2022/03/03 12:43:17;;;;;;;;;32.67;32.67;;;;;;;;5020878;28;9520;-81
2022/03/03 12:45:48;;;;;;;;;40.00;37.25;;;;;;;;4992773;28;9361;-82
2022/03/03 12:48:27;;;;;;;;;41.00;35.75;;;;;;;;5009035;28;9541;-81
2022/03/03 12:51:00;;;;;;;;;36.75;33.00;;;;;;;;5010345;28;9593;-80
2022/03/03 12:53:35;;;;;;;;;37.50;34.50;;;;;;;;5018785;28;9498;-80
2022/03/03 12:56:03;;;;;;;;;35.25;34.75;;;;;;;;5010238;28;9640;-81
2022/03/03 12:58:33;;;;;;;;;30.25;29.75;;;;;;;;5018533;28;9665;-80
2022/03/03 13:01:02;;;;;;;;;39.75;34.25;;;;;;;;5021940;28;9523;-82
2022/03/03 13:03:34;;;;;;;;;36.50;34.50;;;;;;;;5003297;28;9746;-78
2022/03/03 13:06:03;;;;;;;;;49.25;35.75;;;;;;;;5012850;28;9734;-78
2022/03/03 13:08:32;;;;;;;;;42.50;38.00;;;;;;;;5016776;28;9978;-78
2022/03/03 13:11:01;;;;;;;;;41.75;34.75;;;;;;;;5005546;28;9917;-78
2022/03/03 13:13:29;;;;;;;;;41.50;37.50;;;;;;;;5023382;28;9854;-78
2022/03/03 13:15:57;;;;;;;;;35.25;32.75;;;;;;;;5023543;28;9745;-78
2022/03/03 13:18:27;;;;;;;;;39.00;37.00;;;;;;;;4996026;28;9982;-78
2022/03/03 13:20:56;;;;;;;;;42.25;37.00;;;;;;;;5020122;28;9868;-78
2022/03/03 13:23:27;;;;;;;;;33.50;33.50;;;;;;;;5022096;28;9896;-77
2022/03/03 13:26:06;;;;;;;;;37.50;32.25;;;;;;;;5009536;28;10041;-78
2022/03/03 13:28:38;;;;;;;;;34.25;34.25;;;;;;;;5023204;28;9826;-78
2022/03/03 13:31:06;;;;;;;;;35.00;32.75;;;;;;;;5020266;28;9859;-78
2022/03/03 13:33:51;;;;;;;;;42.50;37.75;;;;;;;;4986619;28;9857;-77
2022/03/03 13:36:20;;;;;;;;;35.25;31.50;;;;;;;;5022030;28;10084;-78
2022/03/03 13:38:49;;;;;;;;;40.25;36.25;;;;;;;;5023850;28;9841;-77
2022/03/03 13:41:28;;;;;;;;;40.75;35.75;;;;;;;;5017967;28;10099;-78
2022/03/03 13:44:13;;;;;;;;;34.00;32.50;;;;;;;;5016569;28;9887;-78
2022/03/03 13:46:41;;;;;;;;;40.50;36.50;;;;;;;;5003067;28;9955;-78
2022/03/03 13:49:21;;;;;;;;;36.25;29.75;;;;;;;;5010954;28;9858;-78
2022/03/03 13:52:14;;;;;;;;;36.25;34.00;;;;;;;;5014321;28;9762;-78
2022/03/03 13:54:46;;;;;;;;;34.75;32.75;;;;;;;;4985543;28;9763;-78
2022/03/03 13:57:32;;;;;;;;;37.25;33.50;;;;;;;;5018024;28;9602;-79
2022/03/03 14:00:06;;;;;;;;;31.50;26.00;;;;;;;;5020073;28;9780;-78
2022/03/03 14:02:34;;;;;;;;;29.33;25.00;;;;;;;;5021378;28;10311;-77
2022/03/03 14:05:04;;;;;;;;;28.00;26.00;;;;;;;;5009489;28;9570;-79
2022/03/03 14:07:33;;;;;;;;;28.33;26.33;;;;;;;;5009404;28;9397;-78
2022/03/03 14:10:01;;;;;;;;;25.67;24.33;;;;;;;;5019635;28;9510;-79
2022/03/03 14:12:28;;;;;;;;;29.25;28.00;;;;;;;;5010597;28;10279;-79
2022/03/03 14:14:56;;;;;;;;;29.67;29.67;;;;;;;;5018119;28;10364;-78
2022/03/03 14:17:24;;;;;;;;;25.00;25.00;;;;;;;;5005645;28;9385;-78
2022/03/03 14:19:51;;;;;;;;;28.67;25.33;;;;;;;;5003804;28;9483;-80
2022/03/03 14:22:22;;;;;;;;;27.67;26.67;;;;;;;;5004797;28;10141;-79
2022/03/03 14:24:51;;;;;;;;;32.50;29.75;;;;;;;;5021285;28;10283;-80
2022/03/03 14:27:19;;;;;;;;;28.75;25.00;;;;;;;;5022192;28;9631;-81
2022/03/03 14:29:46;;;;;;;;;26.00;25.33;;;;;;;;5019721;28;9590;-80
2022/03/03 14:32:13;;;;;;;;;30.67;26.67;;;;;;;;5008339;28;9526;-81
2022/03/03 14:34:41;;;;;;;;;34.33;31.33;;;;;;;;5003813;28;9457;-81
2022/03/03 14:37:08;;;;;;;;;30.00;26.67;;;;;;;;5002826;28;9306;-79
2022/03/03 14:39:39;;;;;;;;;32.67;29.33;;;;;;;;5004345;28;9302;-79